Time;durP1;ratioP1;P1;durP2;ratioP2;P2;SDS_P1;SDS_P2;PMS_P1;PMS_P2;Temp;Humidity;BMP_temperature;BMP_pressure;BME280_temperature;BME280_humidity;BME280_pressure;Samples;Min_cycle;Max_cycle;Signal;HPM_P1;HPM_P2
2021/05/26 00:02:21;;;;;;;2.72;0.70;;;17.00;99.90;;;;;;5050622;28;20368;-82
2021/05/26 00:04:48;;;;;;;2.00;0.60;;;16.90;99.90;;;;;;5050805;28;20549;-82
2021/05/26 00:07:15;;;;;;;5.25;0.63;;;16.70;99.90;;;;;;5050412;28;20483;-81
2021/05/26 00:09:42;;;;;;;0.98;0.50;;;16.60;99.90;;;;;;5040810;28;20426;-81
2021/05/26 00:12:10;;;;;;;0.70;0.60;;;16.60;99.90;;;;;;5031753;28;20463;-82
2021/05/26 00:14:37;;;;;;;2.87;0.67;;;16.80;99.90;;;;;;5030123;28;20382;-82
2021/05/26 00:17:05;;;;;;;2.63;0.73;;;16.90;99.90;;;;;;5041610;28;20380;-82
2021/05/26 00:19:32;;;;;;;1.42;0.70;;;17.00;99.90;;;;;;5050050;28;20383;-81
2021/05/26 00:21:59;;;;;;;2.20;0.60;;;16.90;99.90;;;;;;5050416;28;20950;-81
2021/05/26 00:24:26;;;;;;;2.33;0.60;;;16.90;99.90;;;;;;5069515;28;20400;-81
2021/05/26 00:26:53;;;;;;;3.05;0.80;;;16.80;99.90;;;;;;5069498;28;20382;-81
2021/05/26 00:29:20;;;;;;;3.47;0.57;;;16.90;99.90;;;;;;5069300;28;20354;-80
2021/05/26 00:31:47;;;;;;;4.50;1.07;;;16.80;99.90;;;;;;5069347;28;20385;-83
2021/05/26 00:34:14;;;;;;;1.60;0.50;;;16.80;99.90;;;;;;5029974;28;20466;-83
2021/05/26 00:36:41;;;;;;;1.52;0.35;;;16.70;99.90;;;;;;5043392;28;20383;-83
2021/05/26 00:39:08;;;;;;;3.75;0.52;;;16.70;99.90;;;;;;5038653;28;20400;-81
2021/05/26 00:41:35;;;;;;;1.70;0.50;;;16.70;99.90;;;;;;5045265;28;20942;-82
2021/05/26 00:44:03;;;;;;;1.70;0.50;;;16.70;99.90;;;;;;5061332;28;20416;-81
2021/05/26 00:46:30;;;;;;;1.65;0.25;;;16.70;99.90;;;;;;5068849;28;20380;-82
2021/05/26 00:48:57;;;;;;;1.08;0.20;;;16.70;99.90;;;;;;5037286;28;20499;-82
2021/05/26 00:51:27;;;;;;;1.92;0.57;;;16.60;99.90;;;;;;5049380;28;20779;-82
2021/05/26 00:53:53;;;;;;;0.98;0.40;;;16.70;99.90;;;;;;5043954;28;20402;-82
2021/05/26 00:56:20;;;;;;;2.37;0.57;;;16.70;99.90;;;;;;5032898;28;20452;-82
2021/05/26 00:58:48;;;;;;;2.53;0.60;;;16.70;99.90;;;;;;5048671;28;21187;-84
2021/05/26 01:01:17;;;;;;;3.05;0.40;;;16.70;99.90;;;;;;5026432;28;20418;-82
2021/05/26 01:03:44;;;;;;;2.78;0.40;;;16.80;99.90;;;;;;5048452;28;20415;-82
2021/05/26 01:06:11;;;;;;;1.95;0.90;;;16.70;99.90;;;;;;5043088;28;20857;-82
2021/05/26 01:08:38;;;;;;;2.30;0.90;;;16.70;99.90;;;;;;5031043;28;20453;-83
2021/05/26 01:11:06;;;;;;;1.83;0.40;;;16.70;99.90;;;;;;5046773;28;20376;-82
2021/05/26 01:13:34;;;;;;;1.60;0.43;;;16.70;99.90;;;;;;5044610;28;20480;-82
2021/05/26 01:16:01;;;;;;;1.63;0.50;;;16.80;99.90;;;;;;5030806;28;20389;-82
2021/05/26 01:18:30;;;;;;;2.20;0.52;;;16.80;99.90;;;;;;5048765;28;20434;-82
2021/05/26 01:21:00;;;;;;;0.93;0.43;;;16.90;99.90;;;;;;5048990;28;20372;-82
2021/05/26 01:23:28;;;;;;;2.08;0.30;;;17.00;99.80;;;;;;5049066;28;20368;-83
2021/05/26 01:25:57;;;;;;;1.40;0.30;;;17.00;99.90;;;;;;5049073;28;20392;-82
2021/05/26 01:28:27;;;;;;;0.55;0.30;;;17.20;99.90;;;;;;5047718;28;20463;-83
2021/05/26 01:30:55;;;;;;;1.30;0.50;;;17.30;99.50;;;;;;5044667;28;20403;-82
2021/05/26 01:33:22;;;;;;;1.10;0.30;;;17.40;99.80;;;;;;5033357;28;20373;-82
2021/05/26 01:35:50;;;;;;;0.70;0.30;;;17.40;99.10;;;;;;5036547;28;20393;-83
2021/05/26 01:38:20;;;;;;;2.93;0.30;;;17.40;98.40;;;;;;5042876;28;20445;-82
2021/05/26 01:40:48;;;;;;;3.60;0.30;;;17.30;98.60;;;;;;5048929;28;20431;-83
2021/05/26 01:43:16;;;;;;;2.22;0.35;;;17.30;98.60;;;;;;5048759;28;20388;-83
2021/05/26 01:45:43;;;;;;;2.08;0.30;;;17.30;98.90;;;;;;5031453;28;20885;-83
2021/05/26 01:48:10;;;;;;;2.25;0.22;;;17.40;97.50;;;;;;5048210;28;20489;-83
2021/05/26 01:50:37;;;;;;;1.20;0.40;;;17.40;97.60;;;;;;5048731;28;20441;-82
2021/05/26 01:53:08;;;;;;;2.03;0.40;;;17.40;98.10;;;;;;5048689;28;20376;-82
2021/05/26 01:55:38;;;;;;;2.45;0.50;;;17.40;97.80;;;;;;5030695;28;20380;-82
2021/05/26 01:58:05;;;;;;;1.80;0.47;;;17.60;97.40;;;;;;5048028;28;20383;-81
2021/05/26 02:00:32;;;;;;;0.77;0.30;;;17.50;97.50;;;;;;5030397;28;20388;-82
2021/05/26 02:02:59;;;;;;;0.75;0.40;;;17.50;96.60;;;;;;5048158;28;20736;-83
2021/05/26 02:05:27;;;;;;;2.78;0.40;;;17.50;95.80;;;;;;5048657;28;20490;-82
2021/05/26 02:07:54;;;;;;;1.70;0.40;;;17.60;95.40;;;;;;5048782;28;20497;-82
2021/05/26 02:12:20;;;;;;;1.23;0.40;;;17.60;95.50;;;;;;5030295;28;20394;-82
2021/05/26 02:13:08;;;;;;;1.60;0.30;;;17.50;95.80;;;;;;5047829;28;20380;-81
2021/05/26 02:15:35;;;;;;;0.50;0.30;;;17.50;95.10;;;;;;5048123;28;20443;-83
2021/05/26 02:18:02;;;;;;;2.05;0.35;;;17.50;95.00;;;;;;5030505;28;20389;-81
2021/05/26 02:20:29;;;;;;;1.27;0.40;;;17.50;94.60;;;;;;5029761;28;20393;-81
2021/05/26 02:22:56;;;;;;;1.45;0.28;;;17.60;94.50;;;;;;5029391;28;20518;-82
2021/05/26 02:25:23;;;;;;;0.57;0.30;;;17.80;92.40;;;;;;5029415;28;20416;-83
2021/05/26 02:27:50;;;;;;;1.05;0.30;;;17.80;92.70;;;;;;5028386;28;20466;-83
2021/05/26 02:30:18;;;;;;;0.60;0.20;;;17.80;94.00;;;;;;5028418;28;20401;-84
2021/05/26 02:32:45;;;;;;;3.53;0.43;;;17.70;93.20;;;;;;5029575;28;20420;-83
2021/05/26 02:35:12;;;;;;;1.05;0.20;;;17.70;93.90;;;;;;5029290;28;20389;-91
2021/05/26 02:37:40;;;;;;;2.33;0.40;;;17.70;93.70;;;;;;5031095;28;20369;-86
2021/05/26 02:40:08;;;;;;;1.35;0.35;;;17.80;93.70;;;;;;5031155;28;20864;-87
2021/05/26 02:42:35;;;;;;;1.95;0.30;;;17.80;93.50;;;;;;5052215;28;20375;-86
2021/05/26 02:45:03;;;;;;;0.90;0.32;;;17.80;93.10;;;;;;5051800;28;20458;-84
2021/05/26 02:47:30;;;;;;;1.90;0.50;;;17.90;93.20;;;;;;5047562;28;20428;-84
2021/05/26 02:49:57;;;;;;;3.10;0.50;;;17.90;93.80;;;;;;5052131;28;20489;-83
2021/05/26 02:52:24;;;;;;;1.87;0.20;;;17.90;93.40;;;;;;5052082;28;20375;-85
2021/05/26 02:54:51;;;;;;;0.90;0.30;;;17.90;93.70;;;;;;5048143;28;20392;-86
2021/05/26 02:57:20;;;;;;;0.85;0.30;;;18.00;93.50;;;;;;5052493;28;20383;-84
2021/05/26 02:59:51;;;;;;;1.58;0.25;;;18.00;94.10;;;;;;5031843;28;20396;-87
2021/05/26 03:02:18;;;;;;;0.80;0.20;;;18.00;93.40;;;;;;5032265;28;20390;-85
2021/05/26 03:04:45;;;;;;;0.68;0.10;;;18.00;92.90;;;;;;5031721;28;20926;-84
2021/05/26 03:07:13;;;;;;;2.40;0.40;;;18.00;92.50;;;;;;5011957;28;20881;-83
2021/05/26 03:09:40;;;;;;;0.43;0.20;;;18.00;92.30;;;;;;5022751;28;20377;-84
2021/05/26 03:12:07;;;;;;;0.25;0.20;;;18.10;93.20;;;;;;5031152;28;20884;-84
2021/05/26 03:14:34;;;;;;;1.67;0.40;;;18.10;93.00;;;;;;5030252;28;20370;-84
2021/05/26 03:17:02;;;;;;;0.20;0.20;;;18.20;92.90;;;;;;5032322;28;20370;-83
2021/05/26 03:19:29;;;;;;;4.13;0.60;;;18.20;92.60;;;;;;5031933;28;20861;-84
2021/05/26 03:21:56;;;;;;;3.47;0.40;;;18.20;91.50;;;;;;5028451;28;20723;-85
2021/05/26 03:24:23;;;;;;;0.43;0.32;;;18.20;91.40;;;;;;5013884;28;20406;-83
2021/05/26 03:26:50;;;;;;;0.88;0.40;;;18.20;91.30;;;;;;5024724;28;20440;-84
2021/05/26 03:29:18;;;;;;;10.82;0.90;;;18.20;91.00;;;;;;5028451;28;20778;-84
2021/05/26 03:31:46;;;;;;;2.08;0.43;;;18.20;91.50;;;;;;5011765;28;20462;-83
2021/05/26 03:34:13;;;;;;;1.35;0.30;;;18.20;91.00;;;;;;5012093;28;20389;-85
2021/05/26 03:36:41;;;;;;;2.67;0.50;;;18.20;91.70;;;;;;5011858;28;20470;-84
2021/05/26 03:39:12;;;;;;;1.80;0.40;;;18.30;90.70;;;;;;5017995;28;20389;-85
2021/05/26 03:41:39;;;;;;;1.83;0.40;;;18.30;90.40;;;;;;5032645;28;20377;-89
2021/05/26 03:44:07;;;;;;;1.17;0.30;;;18.30;91.70;;;;;;5034135;28;20455;-83
2021/05/26 03:46:35;;;;;;;1.10;0.47;;;18.40;90.00;;;;;;5033255;28;20413;-86
2021/05/26 03:49:03;;;;;;;0.75;0.20;;;18.40;90.30;;;;;;5034552;28;20390;-87
2021/05/26 03:51:36;;;;;;;2.88;0.20;;;18.50;88.60;;;;;;5041928;28;20416;-84
2021/05/26 03:54:04;;;;;;;0.47;0.32;;;18.60;89.30;;;;;;5055537;28;20731;-86
2021/05/26 03:56:31;;;;;;;1.42;0.40;;;18.60;89.60;;;;;;5050305;28;20414;-85
2021/05/26 03:58:58;;;;;;;0.52;0.30;;;18.50;90.10;;;;;;5012985;28;20889;-85
2021/05/26 04:01:26;;;;;;;0.88;0.30;;;18.50;90.20;;;;;;5012662;28;20387;-85
2021/05/26 04:03:53;;;;;;;1.27;0.20;;;18.50;88.90;;;;;;5013305;28;20379;-85
2021/05/26 04:06:20;;;;;;;2.80;0.30;;;18.50;89.50;;;;;;5013578;28;20399;-85
2021/05/26 04:08:47;;;;;;;2.25;0.25;;;18.50;90.20;;;;;;5030249;28;20507;-87
2021/05/26 04:11:14;;;;;;;1.52;0.30;;;18.50;90.10;;;;;;5029662;28;20994;-86
2021/05/26 04:13:41;;;;;;;3.25;0.40;;;18.60;90.30;;;;;;5034845;28;20374;-88
2021/05/26 04:16:08;;;;;;;0.75;0.20;;;18.60;90.10;;;;;;5043947;28;20540;-86
2021/05/26 04:18:35;;;;;;;0.80;0.40;;;18.50;87.80;;;;;;5054348;28;20376;-85
2021/05/26 04:21:02;;;;;;;0.75;0.20;;;18.50;87.60;;;;;;5039479;28;20423;-89
2021/05/26 04:23:30;;;;;;;1.10;0.28;;;18.50;89.60;;;;;;5032168;28;20808;-87
2021/05/26 04:25:57;;;;;;;1.50;0.20;;;18.40;87.30;;;;;;5047148;28;20424;-88
2021/05/26 04:28:24;;;;;;;0.60;0.30;;;18.40;87.30;;;;;;5043867;28;20398;-89
2021/05/26 04:30:51;;;;;;;1.90;0.30;;;18.50;88.30;;;;;;5055060;28;20386;-89
2021/05/26 04:33:18;;;;;;;0.60;0.20;;;18.50;87.30;;;;;;5055845;28;20409;-87
2021/05/26 04:35:46;;;;;;;1.25;0.35;;;18.40;86.70;;;;;;5036256;28;20407;-85
2021/05/26 04:38:14;;;;;;;1.55;0.30;;;18.40;87.10;;;;;;5053152;28;20372;-85
2021/05/26 04:40:41;;;;;;;0.95;0.20;;;18.40;87.20;;;;;;5051212;28;20399;-83
2021/05/26 04:43:08;;;;;;;1.10;0.20;;;18.40;86.90;;;;;;5035757;28;20908;-86
2021/05/26 04:45:35;;;;;;;1.42;0.30;;;18.50;86.80;;;;;;5034544;28;20409;-86
2021/05/26 04:48:02;;;;;;;2.87;0.43;;;18.40;87.00;;;;;;5033357;28;20539;-84
2021/05/26 04:50:30;;;;;;;0.50;0.20;;;18.40;87.00;;;;;;5049132;28;20468;-84
2021/05/26 04:52:57;;;;;;;0.65;0.40;;;18.40;84.50;;;;;;5051239;28;20368;-84
2021/05/26 04:55:24;;;;;;;1.00;0.32;;;18.40;87.70;;;;;;5059913;28;20401;-84
2021/05/26 04:58:06;;;;;;;2.78;0.30;;;18.30;85.30;;;;;;5043981;28;20393;-86
2021/05/26 05:00:33;;;;;;;0.85;0.20;;;18.30;82.30;;;;;;5071734;28;20872;-86
2021/05/26 05:03:01;;;;;;;0.82;0.20;;;18.30;81.00;;;;;;5066794;28;20383;-83
2021/05/26 05:05:32;;;;;;;0.43;0.20;;;18.20;77.70;;;;;;5032420;28;20436;-86
2021/05/26 05:08:07;;;;;;;1.35;0.20;;;18.20;79.60;;;;;;5050984;28;20427;-85
2021/05/26 05:10:34;;;;;;;1.90;0.20;;;18.20;79.50;;;;;;5045236;28;20387;-85
2021/05/26 05:13:02;;;;;;;0.87;0.20;;;18.10;80.60;;;;;;5035498;28;20383;-85
2021/05/26 05:15:30;;;;;;;1.00;0.20;;;18.00;80.60;;;;;;5038621;28;20462;-84
2021/05/26 05:17:57;;;;;;;2.42;0.20;;;17.90;81.60;;;;;;5050707;28;20414;-85
2021/05/26 05:20:26;;;;;;;2.70;0.20;;;17.90;79.20;;;;;;5048732;28;20403;-85
2021/05/26 05:22:55;;;;;;;2.33;0.22;;;17.90;79.10;;;;;;5030159;28;20417;-86
2021/05/26 05:25:23;;;;;;;0.43;0.28;;;17.90;78.80;;;;;;5033978;28;20405;-85
2021/05/26 05:27:51;;;;;;;1.55;0.30;;;17.80;79.50;;;;;;5043793;28;20394;-86
2021/05/26 05:30:18;;;;;;;0.70;0.30;;;17.80;82.70;;;;;;5049835;28;20425;-86
2021/05/26 05:32:45;;;;;;;2.90;0.25;;;17.70;78.40;;;;;;5016001;28;20393;-84
2021/05/26 05:35:13;;;;;;;0.30;0.10;;;17.70;79.40;;;;;;5013610;28;20386;-82
2021/05/26 05:37:40;;;;;;;0.85;0.20;;;17.60;79.70;;;;;;5030821;28;20736;-85
2021/05/26 05:40:07;;;;;;;0.40;0.15;;;17.60;80.80;;;;;;5030834;28;20389;-84
2021/05/26 05:42:35;;;;;;;1.17;0.22;;;17.50;79.50;;;;;;5031180;28;20373;-83
2021/05/26 05:45:03;;;;;;;0.70;0.20;;;17.50;80.00;;;;;;5031040;28;20536;-83
2021/05/26 05:47:30;;;;;;;0.80;0.20;;;17.40;81.30;;;;;;5031151;28;20413;-85
2021/05/26 05:49:57;;;;;;;3.10;0.63;;;17.40;82.10;;;;;;5015400;28;20414;-84
2021/05/26 05:52:24;;;;;;;0.20;0.13;;;17.40;77.30;;;;;;5033463;28;20423;-86
2021/05/26 05:54:51;;;;;;;1.30;0.20;;;17.40;80.10;;;;;;5030778;28;20389;-85
2021/05/26 05:57:17;;;;;;;1.13;0.20;;;17.40;79.40;;;;;;5031050;28;20420;-84
2021/05/26 05:59:44;;;;;;;1.77;0.40;;;17.40;80.40;;;;;;5030936;28;20381;-84
2021/05/26 06:02:11;;;;;;;2.92;0.20;;;17.30;81.10;;;;;;5034499;28;20378;-86
2021/05/26 06:04:38;;;;;;;1.50;0.30;;;17.30;82.20;;;;;;5036908;28;20415;-83
2021/05/26 06:07:05;;;;;;;2.03;0.40;;;17.20;82.50;;;;;;5032711;28;20439;-84
2021/05/26 06:09:33;;;;;;;2.38;0.40;;;17.10;83.40;;;;;;5053285;28;20393;-83
2021/05/26 06:12:00;;;;;;;0.73;0.38;;;17.10;83.40;;;;;;5057950;28;20440;-86
2021/05/26 06:14:26;;;;;;;1.48;0.40;;;17.00;86.00;;;;;;5038190;28;20765;-85
2021/05/26 06:16:53;;;;;;;2.38;0.40;;;16.90;85.50;;;;;;5024160;28;20422;-84
2021/05/26 06:19:20;;;;;;;1.83;0.40;;;16.80;85.60;;;;;;5036362;28;20389;-83
2021/05/26 06:21:47;;;;;;;3.03;0.50;;;16.80;86.50;;;;;;5032891;28;20447;-84
2021/05/26 06:24:15;;;;;;;0.70;0.32;;;16.60;88.60;;;;;;5033783;28;20408;-85
2021/05/26 06:26:42;;;;;;;3.73;0.40;;;16.60;86.20;;;;;;5049097;28;20393;-83
2021/05/26 06:29:09;;;;;;;1.70;0.57;;;16.50;88.80;;;;;;5032847;28;20443;-86
2021/05/26 06:31:36;;;;;;;1.90;0.50;;;16.40;90.10;;;;;;5044915;28;20388;-83
2021/05/26 06:34:03;;;;;;;1.15;0.40;;;16.30;88.30;;;;;;5047386;28;20730;-84
2021/05/26 06:36:34;;;;;;;1.55;0.60;;;16.20;89.90;;;;;;5035626;28;20401;-84
2021/05/26 06:39:02;;;;;;;8.93;1.37;;;16.10;90.10;;;;;;5051444;28;20371;-85
2021/05/26 06:41:29;;;;;;;2.40;0.47;;;16.00;91.10;;;;;;5056477;28;20498;-85
2021/05/26 06:43:56;;;;;;;0.95;0.50;;;15.90;90.10;;;;;;5053678;28;20375;-83
2021/05/26 06:46:24;;;;;;;1.85;0.50;;;15.80;91.00;;;;;;5052956;28;20418;-84
2021/05/26 06:48:50;;;;;;;1.52;0.40;;;15.70;90.80;;;;;;5052137;28;20379;-83
2021/05/26 06:51:17;;;;;;;1.35;0.40;;;15.60;91.60;;;;;;5052167;28;20419;-83
2021/05/26 06:53:44;;;;;;;1.27;0.50;;;15.50;91.50;;;;;;5052242;28;20418;-82
2021/05/26 06:56:11;;;;;;;1.60;0.68;;;15.40;91.00;;;;;;5051965;28;20467;-84
2021/05/26 06:58:41;;;;;;;2.15;0.63;;;15.30;91.10;;;;;;5052478;28;20371;-84
2021/05/26 07:01:08;;;;;;;4.20;0.55;;;15.20;91.30;;;;;;5051913;28;20422;-85
2021/05/26 07:03:35;;;;;;;2.25;0.40;;;15.10;91.70;;;;;;5034115;28;20477;-84
2021/05/26 07:06:02;;;;;;;7.03;0.80;;;15.00;91.70;;;;;;5051787;28;20410;-84
2021/05/26 07:08:31;;;;;;;2.83;0.70;;;14.90;91.60;;;;;;5052921;28;20390;-84
2021/05/26 07:10:58;;;;;;;3.63;0.73;;;14.90;92.30;;;;;;5051753;28;20423;-85
2021/05/26 07:13:25;;;;;;;1.90;0.60;;;14.80;91.70;;;;;;5051704;28;20378;-84
2021/05/26 07:15:52;;;;;;;2.13;0.80;;;14.70;92.00;;;;;;5051002;28;20387;-85
2021/05/26 07:18:19;;;;;;;2.63;0.80;;;14.70;92.30;;;;;;5051684;28;20953;-83
2021/05/26 07:20:48;;;;;;;3.63;0.80;;;14.60;92.30;;;;;;5049266;28;20790;-85
2021/05/26 07:23:17;;;;;;;3.40;0.82;;;14.50;93.00;;;;;;5044964;28;20390;-84
2021/05/26 07:25:44;;;;;;;2.67;1.00;;;14.40;93.30;;;;;;5025530;28;20919;-83
2021/05/26 07:28:12;;;;;;;4.57;0.70;;;14.30;92.90;;;;;;5030185;28;20527;-83
2021/05/26 07:30:40;;;;;;;3.50;1.13;;;14.20;93.50;;;;;;5045413;28;20815;-83
2021/05/26 07:33:07;;;;;;;2.17;0.75;;;14.20;93.80;;;;;;5051286;28;20422;-84
2021/05/26 07:35:34;;;;;;;2.45;0.98;;;14.10;94.10;;;;;;5051346;28;20384;-86
2021/05/26 07:38:01;;;;;;;3.60;1.00;;;14.00;94.00;;;;;;5051588;28;20380;-86
2021/05/26 07:40:28;;;;;;;3.28;1.20;;;13.90;94.30;;;;;;5020706;28;20405;-86
2021/05/26 07:42:55;;;;;;;4.57;1.13;;;13.90;95.10;;;;;;5031498;28;20378;-85
2021/05/26 07:45:22;;;;;;;2.47;0.98;;;13.80;95.30;;;;;;5031350;28;20401;-85
2021/05/26 07:47:49;;;;;;;2.33;1.00;;;13.70;95.30;;;;;;5030809;28;20382;-85
2021/05/26 07:50:16;;;;;;;1.35;0.80;;;13.70;95.70;;;;;;5031096;28;20736;-84
2021/05/26 07:52:43;;;;;;;3.70;1.08;;;13.60;96.00;;;;;;5031320;28;20444;-83
2021/05/26 07:55:11;;;;;;;3.22;0.90;;;13.60;95.80;;;;;;5049477;28;20535;-84
2021/05/26 07:57:38;;;;;;;2.33;0.98;;;13.50;96.30;;;;;;5032987;28;20384;-86
2021/05/26 08:00:06;;;;;;;4.10;1.35;;;13.50;96.80;;;;;;5052299;28;20383;-85
2021/05/26 08:02:34;;;;;;;3.70;1.20;;;13.40;96.90;;;;;;5046044;28;20391;-84
2021/05/26 08:05:01;;;;;;;3.60;1.38;;;13.40;97.70;;;;;;5031501;28;20462;-83
2021/05/26 08:07:28;;;;;;;3.55;1.20;;;13.30;97.60;;;;;;5014183;28;20410;-84
2021/05/26 08:09:55;;;;;;;4.32;1.40;;;13.30;97.40;;;;;;5014055;28;20385;-84
2021/05/26 08:12:21;;;;;;;6.28;1.80;;;13.20;97.70;;;;;;5031742;28;20459;-83
2021/05/26 08:14:48;;;;;;;3.20;1.40;;;13.20;97.80;;;;;;5032382;28;20393;-86
2021/05/26 08:17:16;;;;;;;2.67;1.23;;;13.20;98.10;;;;;;5031434;28;20361;-84
2021/05/26 08:19:43;;;;;;;3.80;1.45;;;13.10;98.10;;;;;;5031252;28;20369;-84
2021/05/26 08:22:10;;;;;;;4.25;1.40;;;13.10;98.50;;;;;;5030973;28;20452;-84
2021/05/26 08:24:37;;;;;;;4.25;1.42;;;13.00;98.70;;;;;;5031668;28;20393;-84
2021/05/26 08:27:04;;;;;;;3.83;1.33;;;13.00;98.20;;;;;;5032511;28;20394;-84
2021/05/26 08:29:33;;;;;;;4.85;1.48;;;12.90;98.80;;;;;;5031566;28;20360;-85
2021/05/26 08:32:01;;;;;;;6.25;1.63;;;12.90;99.40;;;;;;5044014;28;20938;-86
2021/05/26 08:34:28;;;;;;;4.75;2.20;;;12.90;99.00;;;;;;5032509;28;20432;-84
2021/05/26 08:36:57;;;;;;;3.70;1.70;;;12.90;98.50;;;;;;5031328;28;20381;-85
2021/05/26 08:39:24;;;;;;;6.30;2.30;;;12.80;98.80;;;;;;5034496;28;20467;-84
2021/05/26 08:41:54;;;;;;;5.60;1.80;;;12.80;98.50;;;;;;5038467;28;20408;-85
2021/05/26 08:44:21;;;;;;;3.42;1.35;;;12.80;98.80;;;;;;5058344;28;20811;-84
2021/05/26 08:46:53;;;;;;;3.72;1.20;;;12.90;97.60;;;;;;5057112;28;20433;-84
2021/05/26 08:49:20;;;;;;;2.63;1.05;;;13.00;96.70;;;;;;5058480;28;20431;-84
2021/05/26 08:51:48;;;;;;;4.20;1.00;;;13.10;95.70;;;;;;5061054;28;20418;-84
2021/05/26 08:54:18;;;;;;;4.95;1.30;;;13.10;96.20;;;;;;5064596;28;20383;-82
2021/05/26 08:56:46;;;;;;;3.10;1.20;;;13.10;96.20;;;;;;5056911;28;20381;-84
2021/05/26 08:59:19;;;;;;;2.95;0.80;;;13.10;95.80;;;;;;5030003;28;20869;-84
2021/05/26 09:01:50;;;;;;;2.17;0.80;;;13.20;94.00;;;;;;5022976;28;20412;-83
2021/05/26 09:04:29;;;;;;;2.40;0.60;;;13.20;94.40;;;;;;5053368;28;20398;-87
2021/05/26 09:07:13;;;;;;;2.40;0.75;;;13.30;93.80;;;;;;5041576;28;20390;-84
2021/05/26 09:09:59;;;;;;;2.03;0.80;;;13.30;93.70;;;;;;5031637;28;20374;-84
2021/05/26 09:12:42;;;;;;;2.05;0.80;;;13.30;93.90;;;;;;5034882;28;20368;-87
2021/05/26 09:15:17;;;;;;;3.97;1.23;;;13.20;93.60;;;;;;5033553;28;20409;-86
2021/05/26 09:17:47;;;;;;;2.45;0.95;;;13.10;93.90;;;;;;5032576;28;20370;-86
2021/05/26 09:20:29;;;;;;;4.25;1.00;;;13.00;94.40;;;;;;5036609;28;20383;-88
2021/05/26 09:23:13;;;;;;;2.97;0.90;;;13.00;94.80;;;;;;5045134;28;20372;-88
2021/05/26 09:25:46;;;;;;;2.40;1.10;;;12.80;94.90;;;;;;5076459;28;20402;-87
2021/05/26 09:28:25;;;;;;;2.30;0.90;;;12.80;94.60;;;;;;5069682;28;20470;-91
2021/05/26 09:31:09;;;;;;;4.60;0.90;;;12.90;94.50;;;;;;5056489;28;20387;-89
2021/05/26 09:33:36;;;;;;;3.17;0.90;;;12.90;94.40;;;;;;5040450;28;20385;-86
2021/05/26 09:36:20;;;;;;;2.63;0.73;;;12.90;94.60;;;;;;5044082;28;20414;-85
2021/05/26 09:38:59;;;;;;;1.77;0.90;;;12.80;94.50;;;;;;5058779;28;20478;-89
2021/05/26 09:41:36;;;;;;;2.17;0.90;;;12.80;94.90;;;;;;5036927;28;20478;-88
2021/05/26 09:44:11;;;;;;;4.55;1.10;;;12.80;95.00;;;;;;5047764;28;20391;-88
2021/05/26 09:46:40;;;;;;;2.43;0.70;;;12.80;95.10;;;;;;5036052;28;20400;-88
2021/05/26 09:49:17;;;;;;;2.50;0.77;;;12.70;95.30;;;;;;5034853;28;20389;-87
2021/05/26 09:51:55;;;;;;;2.80;0.80;;;12.60;95.50;;;;;;5041737;28;20381;-84
2021/05/26 09:54:27;;;;;;;4.40;0.80;;;12.50;95.90;;;;;;5050180;28;20456;-86
2021/05/26 09:57:03;;;;;;;3.28;0.82;;;12.50;96.00;;;;;;5054130;28;20422;-89
2021/05/26 09:59:32;;;;;;;3.90;0.85;;;12.40;95.60;;;;;;5035871;28;20391;-87
2021/05/26 10:01:59;;;;;;;2.92;0.77;;;12.40;95.60;;;;;;5054471;28;20446;-86
2021/05/26 10:04:26;;;;;;;5.05;1.00;;;12.40;95.90;;;;;;5042247;28;20436;-87
2021/05/26 10:06:57;;;;;;;3.38;1.10;;;12.40;96.00;;;;;;5036474;28;20404;-86
2021/05/26 10:09:25;;;;;;;4.25;1.08;;;12.30;95.80;;;;;;5044873;28;20395;-88
2021/05/26 10:11:56;;;;;;;4.57;1.00;;;12.40;96.50;;;;;;5038174;28;20409;-86
2021/05/26 10:14:24;;;;;;;3.73;0.80;;;12.30;95.70;;;;;;5045542;28;20377;-85
2021/05/26 10:16:55;;;;;;;2.85;0.70;;;12.30;96.10;;;;;;5018290;28;20393;-87
2021/05/26 10:19:24;;;;;;;2.53;0.63;;;12.40;95.10;;;;;;5042859;28;20405;-87
2021/05/26 10:21:51;;;;;;;2.25;0.60;;;12.50;94.70;;;;;;5036804;28;20385;-88
2021/05/26 10:24:23;;;;;;;2.50;1.00;;;12.50;94.60;;;;;;5015528;28;20542;-86
2021/05/26 10:26:57;;;;;;;4.60;0.90;;;12.50;94.40;;;;;;5038623;28;20866;-86
2021/05/26 10:29:34;;;;;;;3.50;0.70;;;12.50;94.80;;;;;;5055329;28;20360;-87
2021/05/26 10:32:09;;;;;;;2.43;0.83;;;12.50;94.80;;;;;;5037186;28;20950;-88
2021/05/26 10:34:50;;;;;;;2.10;0.75;;;12.50;94.40;;;;;;5040126;28;20379;-87
2021/05/26 10:37:38;;;;;;;1.37;0.53;;;12.40;94.60;;;;;;5017248;28;20420;-89
2021/05/26 10:40:36;;;;;;;2.40;0.83;;;12.40;94.50;;;;;;5035323;28;20385;-88
2021/05/26 10:43:19;;;;;;;3.37;0.87;;;12.50;94.30;;;;;;5020100;28;20381;-89
2021/05/26 10:45:50;;;;;;;2.17;0.77;;;12.50;94.70;;;;;;5035382;28;20420;-87
2021/05/26 10:48:39;;;;;;;2.67;0.80;;;12.50;94.50;;;;;;5054277;28;20437;-87
2021/05/26 10:51:07;;;;;;;3.22;0.65;;;12.40;94.30;;;;;;5050370;28;20791;-86
2021/05/26 10:53:45;;;;;;;2.35;0.70;;;12.60;94.00;;;;;;5046037;28;20414;-88
2021/05/26 10:56:51;;;;;;;;;;;;;;;;;;;;;
2021/05/26 10:59:40;;;;;;;;;;;;;;;;;;;;;
2021/05/26 11:02:09;;;;;;;6.43;2.60;;;12.60;94.10;;;;;;5060765;28;20473;-88
2021/05/26 11:04:38;;;;;;;8.35;2.25;;;12.60;94.30;;;;;;5051681;28;20424;-89
2021/05/26 11:07:29;;;;;;;5.93;1.27;;;12.50;94.50;;;;;;5051390;28;20396;-87
2021/05/26 11:09:57;;;;;;;3.90;0.70;;;12.40;94.60;;;;;;5021783;28;20513;-84
2021/05/26 11:12:25;;;;;;;2.40;0.70;;;12.40;95.00;;;;;;5045951;28;20407;-87
2021/05/26 11:14:55;;;;;;;4.35;0.80;;;12.40;94.80;;;;;;5050292;28;20399;-85
2021/05/26 11:17:29;;;;;;;4.25;0.90;;;12.40;94.90;;;;;;5057327;28;20851;-88
2021/05/26 11:20:14;;;;;;;3.78;0.90;;;12.30;95.20;;;;;;5056343;28;20384;-87
2021/05/26 11:22:41;;;;;;;4.78;1.08;;;12.30;95.00;;;;;;5034418;28;20384;-86
2021/05/26 11:25:10;;;;;;;4.28;1.00;;;12.30;95.00;;;;;;5034524;28;20409;-88
2021/05/26 11:27:46;;;;;;;2.05;0.80;;;12.30;94.90;;;;;;5054574;28;20890;-89
2021/05/26 11:30:15;;;;;;;2.38;0.90;;;12.20;95.20;;;;;;5032029;28;20398;-86
2021/05/26 11:32:43;;;;;;;4.10;1.00;;;12.20;95.30;;;;;;5026473;28;20385;-86
2021/05/26 11:35:10;;;;;;;2.72;0.95;;;12.20;95.40;;;;;;5052212;28;20483;-86
2021/05/26 11:37:40;;;;;;;3.55;1.10;;;12.10;95.70;;;;;;5035698;28;20765;-85
2021/05/26 11:40:26;;;;;;;3.00;1.20;;;12.00;96.00;;;;;;5041476;28;20476;-87
2021/05/26 11:42:55;;;;;;;3.85;0.93;;;12.00;96.40;;;;;;5027457;28;20426;-85
2021/05/26 11:45:24;;;;;;;3.83;1.20;;;11.90;96.40;;;;;;5047032;28;20402;-87
2021/05/26 11:47:56;;;;;;;4.55;1.20;;;11.90;97.00;;;;;;5028136;28;20389;-87
2021/05/26 11:50:28;;;;;;;5.65;1.20;;;11.80;97.20;;;;;;5024162;28;20490;-86
2021/05/26 11:53:01;;;;;;;3.13;1.00;;;11.70;96.70;;;;;;5033751;28;20418;-85
2021/05/26 11:55:29;;;;;;;3.38;0.90;;;11.70;97.10;;;;;;5046039;28;20437;-84
2021/05/26 11:57:56;;;;;;;3.63;1.20;;;11.60;97.00;;;;;;5044078;28;20427;-86
2021/05/26 12:00:34;;;;;;;3.60;1.20;;;11.60;97.40;;;;;;5031758;28;20488;-86
2021/05/26 12:03:14;;;;;;;3.60;1.00;;;11.50;97.20;;;;;;5024924;28;20964;-85
2021/05/26 12:05:53;;;;;;;3.80;1.00;;;11.40;98.10;;;;;;5048702;28;20433;-85
2021/05/26 12:08:24;;;;;;;5.18;0.98;;;11.50;98.00;;;;;;5034794;28;20421;-86
2021/05/26 12:11:05;;;;;;;4.25;1.10;;;11.40;98.20;;;;;;5048626;28;20409;-86
2021/05/26 12:13:34;;;;;;;3.15;1.10;;;11.40;98.50;;;;;;5039366;28;20888;-90
2021/05/26 12:16:05;;;;;;;5.73;0.97;;;11.40;98.90;;;;;;5046269;28;20409;-87
2021/05/26 12:18:33;;;;;;;3.70;1.30;;;11.30;98.90;;;;;;5046729;28;20393;-88
2021/05/26 12:21:01;;;;;;;2.25;0.75;;;11.30;99.00;;;;;;5037889;28;20872;-86
2021/05/26 12:23:35;;;;;;;4.53;1.00;;;11.30;99.30;;;;;;5042305;28;20389;-89
2021/05/26 12:26:25;;;;;;;4.50;1.10;;;11.30;99.50;;;;;;5019129;28;20512;-86
2021/05/26 12:28:54;;;;;;;4.63;0.90;;;11.20;99.80;;;;;;5020240;28;20478;-84
2021/05/26 12:31:21;;;;;;;3.42;1.05;;;11.20;99.90;;;;;;5044089;28;20398;-86
2021/05/26 12:33:53;;;;;;;5.50;1.20;;;11.10;99.90;;;;;;5035494;28;20395;-88
2021/05/26 12:36:22;;;;;;;4.05;1.42;;;11.10;99.90;;;;;;5047338;28;20417;-85
2021/05/26 12:38:55;;;;;;;4.80;1.30;;;11.20;99.90;;;;;;5053433;28;20909;-85
2021/05/26 12:41:34;;;;;;;3.22;1.25;;;11.10;99.90;;;;;;5044595;28;20389;-87
2021/05/26 12:44:21;;;;;;;5.28;1.15;;;11.10;99.90;;;;;;5016714;28;20405;-91
2021/05/26 12:46:53;;;;;;;5.88;1.15;;;11.10;99.90;;;;;;5025126;28;20409;-88
2021/05/26 12:51:58;;;;;;;3.50;1.20;;;11.10;99.90;;;;;;5052831;28;20461;-89
2021/05/26 12:54:26;;;;;;;4.85;1.30;;;11.10;99.90;;;;;;5030595;28;20403;-87
2021/05/26 12:57:07;;;;;;;4.60;1.10;;;11.10;99.90;;;;;;5053037;28;20423;-88
2021/05/26 12:59:39;;;;;;;9.20;1.50;;;11.00;99.90;;;;;;5052300;28;20764;-89
2021/05/26 13:02:08;;;;;;;4.75;1.20;;;11.00;99.90;;;;;;5051287;28;20411;-88
2021/05/26 13:04:35;;;;;;;6.80;1.20;;;11.00;99.90;;;;;;5042971;28;20408;-86